Time,TemperatureF,DewpointF,PressureIn,WindDirection,WindDirectionDegrees,WindSpeedMPH,WindSpeedGustMPH,Humidity,HourlyPrecipIn,Conditions,Clouds,dailyrainin,SolarRadiationWatts/m^2,SoftwareType,DateUTC
2013-11-01 00:03:00,43.9,40.0,30.27,NW,315,0.0,0.0,86,0.00,CLR,,0.00,0.0,WeatherDisplay:10.37,2013-10-31 23:03:00,
2013-11-01 00:08:00,44.2,40.0,30.27,NW,315,0.0,0.0,85,0.00,CLR,,0.00,0.0,WeatherDisplay:10.37,2013-10-31 23:08:00,
2013-11-01 00:13:00,44.4,40.2,30.27,NW,315,0.0,0.0,85,0.00,CLR,,0.00,0.0,WeatherDisplay:10.37,2013-10-31 23:13:00,
2013-11-01 00:18:00,44.8,40.2,30.30,NW,315,0.0,0.0,84,0.00,CLR,,0.00,0.0,WeatherDisplay:10.37,2013-10-31 23:18:00,
2013-11-01 00:23:00,45.1,40.6,30.30,NNE,22,0.0,0.0,84,0.00,CLR,,0.00,0.0,WeatherDisplay:10.37,2013-10-31 23:23:00,
2013-11-01 00:28:00,45.3,40.8,30.30,NNW,338,0.0,0.0,84,0.00,CLR,,0.00,0.0,WeatherDisplay:10.37,2013-10-31 23:28:00,
2013-11-01 00:33:00,45.5,40.6,30.30,WNW,292,0.0,0.0,83,0.00,CLR,,0.00,0.0,WeatherDisplay:10.37,2013-10-31 23:33:00,
2013-11-01 00:38:00,45.7,40.8,30.30,WNW,292,0.0,0.0,83,0.00,CLR,,0.00,0.0,WeatherDisplay:10.37,2013-10-31 23:38:00,
2013-11-01 00:43:00,45.9,41.0,30.30,WNW,292,0.0,0.0,83,0.00,CLR,,0.00,0.0,WeatherDisplay:10.37,2013-10-31 23:43:00,
2013-11-01 00:48:00,45.9,41.0,30.30,WNW,292,0.0,0.0,83,0.00,CLR,,0.00,0.0,WeatherDisplay:10.37,2013-10-31 23:48:00,
2013-11-01 00:53:00,46.0,41.2,30.30,North,0,0.0,0.0,83,0.00,CLR,,0.00,0.0,WeatherDisplay:10.37,2013-10-31 23:53:00,
2013-11-01 00:58:00,46.0,41.2,30.30,WNW,292,0.0,0.0,83,0.00,CLR,,0.00,0.0,WeatherDisplay:10.37,2013-10-31 23:58:00,
2013-11-01 01:03:00,46.2,41.0,30.30,WNW,292,0.0,0.0,82,0.00,CLR,,0.00,0.0,WeatherDisplay:10.37,2013-11-01 00:03:00,
2013-11-01 01:08:00,46.4,41.2,30.30,WNW,292,0.0,0.0,82,0.00,CLR,,0.00,0.0,WeatherDisplay:10.37,2013-11-01 00:08:00,
2013-11-01 01:13:00,46.4,40.9,30.30,WNW,292,0.0,0.0,81,0.00,CLR,,0.00,0.0,WeatherDisplay:10.37,2013-11-01 00:13:00,
2013-11-01 01:18:00,46.6,41.1,30.30,NW,315,0.0,0.0,81,0.00,CLR,,0.00,0.0,WeatherDisplay:10.37,2013-11-01 00:18:00,
2013-11-01 01:23:00,46.6,41.1,30.30,NW,315,0.0,0.0,81,0.00,CLR,,0.00,0.0,WeatherDisplay:10.37,2013-11-01 00:23:00,
2013-11-01 01:28:00,46.6,40.7,30.30,NW,315,0.0,0.0,80,0.00,CLR,,0.00,0.0,WeatherDisplay:10.37,2013-11-01 00:28:00,
2013-11-01 01:33:00,46.8,40.9,30.30,NW,315,0.0,0.0,80,0.00,CLR,,0.00,0.0,WeatherDisplay:10.37,2013-11-01 00:33:00,
2013-11-01 01:38:00,46.9,41.1,30.30,NNW,338,0.0,0.0,80,0.00,CLR,,0.00,0.0,WeatherDisplay:10.37,2013-11-01 00:38:00,
2013-11-01 01:43:00,46.9,41.1,30.30,NNW,338,0.0,0.0,80,0.00,CLR,,0.00,0.0,WeatherDisplay:10.37,2013-11-01 00:43:00,
2013-11-01 01:48:00,46.9,40.8,30.30,NNE,22,0.0,0.0,79,0.00,CLR,,0.00,0.0,WeatherDisplay:10.37,2013-11-01 00:48:00,
2013-11-01 01:53:00,47.1,40.9,30.30,NNE,22,0.0,0.0,79,0.00,CLR,,0.00,0.0,WeatherDisplay:10.37,2013-11-01 00:53:00,
2013-11-01 01:58:00,47.1,40.9,30.30,NNE,22,0.0,0.0,79,0.00,CLR,,0.00,0.0,WeatherDisplay:10.37,2013-11-01 00:58:00,
2013-11-01 02:03:00,47.3,41.1,30.30,NNE,22,0.0,0.0,79,0.00,CLR,,0.00,0.0,WeatherDisplay:10.37,2013-11-01 01:03:00,
2013-11-01 02:08:00,47.1,40.9,30.30,NNE,22,0.0,0.0,79,0.00,CLR,,0.00,0.0,WeatherDisplay:10.37,2013-11-01 01:08:00,
2013-11-01 02:13:00,47.3,40.8,30.30,NNE,22,0.0,0.0,78,0.00,CLR,,0.00,0.0,WeatherDisplay:10.37,2013-11-01 01:13:00,
2013-11-01 02:18:00,47.3,40.8,30.30,NNE,22,0.0,0.0,78,0.00,CLR,,0.00,0.0,WeatherDisplay:10.37,2013-11-01 01:18:00,
2013-11-01 02:23:00,47.3,40.8,30.30,NNE,22,0.0,0.0,78,0.00,CLR,,0.00,0.0,WeatherDisplay:10.37,2013-11-01 01:23:00,
2013-11-01 02:28:00,47.3,40.5,30.30,NNE,22,0.0,0.0,77,0.00,CLR,,0.00,0.0,WeatherDisplay:10.37,2013-11-01 01:28:00,
2013-11-01 02:33:00,47.3,40.5,30.27,NNE,22,0.0,0.0,77,0.00,CLR,,0.00,0.0,WeatherDisplay:10.37,2013-11-01 01:33:00,
2013-11-01 02:38:00,47.3,40.5,30.27,NNE,22,0.0,0.0,77,0.00,CLR,,0.00,0.0,WeatherDisplay:10.37,2013-11-01 01:38:00,
2013-11-01 02:43:00,47.5,40.6,30.27,NNE,22,0.0,0.0,77,0.00,CLR,,0.00,0.0,WeatherDisplay:10.37,2013-11-01 01:43:00,
2013-11-01 02:48:00,47.5,40.6,30.27,NNE,22,0.0,0.0,77,0.00,CLR,,0.00,0.0,WeatherDisplay:10.37,2013-11-01 01:48:00,
2013-11-01 02:53:00,47.5,40.6,30.27,NE,45,1.1,0.0,77,0.00,CLR,,0.00,0.0,WeatherDisplay:10.37,2013-11-01 01:53:00,
2013-11-01 02:58:00,47.5,40.6,30.27,NE,45,0.0,0.0,77,0.00,CLR,,0.00,0.0,WeatherDisplay:10.37,2013-11-01 01:58:00,
2013-11-01 03:03:00,47.5,40.3,30.27,NNE,22,2.3,2.3,76,0.00,CLR,,0.00,0.0,WeatherDisplay:10.37,2013-11-01 02:03:00,
2013-11-01 03:08:00,47.5,39.9,30.27,East,90,1.1,0.0,75,0.00,CLR,,0.00,0.0,WeatherDisplay:10.37,2013-11-01 02:08:00,
2013-11-01 03:13:00,47.7,39.8,30.27,ENE,68,3.5,3.5,74,0.00,CLR,,0.00,0.0,WeatherDisplay:10.37,2013-11-01 02:13:00,
2013-11-01 03:18:00,47.8,39.2,30.27,NNE,22,2.3,2.3,72,0.00,CLR,,0.00,0.0,WeatherDisplay:10.37,2013-11-01 02:18:00,
2013-11-01 03:23:00,48.0,39.4,30.27,ESE,112,2.3,2.3,72,0.00,CLR,,0.00,0.0,WeatherDisplay:10.37,2013-11-01 02:23:00,
2013-11-01 03:28:00,48.2,39.2,30.27,East,90,1.1,0.0,71,0.00,CLR,,0.00,0.0,WeatherDisplay:10.37,2013-11-01 02:28:00,
2013-11-01 03:33:00,48.2,39.2,30.27,NNE,22,1.1,1.1,71,0.00,CLR,,0.00,0.0,WeatherDisplay:10.37,2013-11-01 02:33:00,
2013-11-01 03:38:00,48.2,38.9,30.27,ESE,112,1.1,0.0,70,0.00,CLR,,0.00,0.0,WeatherDisplay:10.37,2013-11-01 02:38:00,
2013-11-01 03:43:00,48.4,38.7,30.27,East,90,1.1,0.0,69,0.00,CLR,,0.00,0.0,WeatherDisplay:10.37,2013-11-01 02:43:00,
2013-11-01 03:48:00,48.4,38.7,30.24,East,90,2.4,2.4,69,0.00,CLR,,0.00,0.0,WeatherDisplay:10.37,2013-11-01 02:48:00,
2013-11-01 03:53:00,48.6,38.5,30.24,NNE,22,2.3,2.3,68,0.00,CLR,,0.00,0.0,WeatherDisplay:10.37,2013-11-01 02:53:00,
2013-11-01 03:58:00,48.7,38.3,30.24,ESE,112,2.3,0.0,67,0.00,CLR,,0.00,0.0,WeatherDisplay:10.37,2013-11-01 02:58:00,
2013-11-01 04:03:00,48.7,38.3,30.24,NE,45,0.0,0.0,67,0.00,CLR,,0.00,0.0,WeatherDisplay:10.37,2013-11-01 03:03:00,
2013-11-01 04:08:00,48.7,38.3,30.24,ENE,68,0.0,0.0,67,0.00,CLR,,0.00,0.0,WeatherDisplay:10.37,2013-11-01 03:08:00,
2013-11-01 04:13:00,48.7,38.3,30.24,NE,45,2.3,2.3,67,0.00,CLR,,0.00,0.0,WeatherDisplay:10.37,2013-11-01 03:13:00,
2013-11-01 04:18:00,48.7,38.3,30.24,East,90,0.0,0.0,67,0.00,CLR,,0.00,0.0,WeatherDisplay:10.37,2013-11-01 03:18:00,
2013-11-01 04:23:00,48.7,37.9,30.24,ENE,68,2.3,2.3,66,0.00,CLR,,0.00,0.0,WeatherDisplay:10.37,2013-11-01 03:23:00,
2013-11-01 04:28:00,48.7,37.9,30.24,ESE,112,1.4,1.4,66,0.00,CLR,,0.00,0.0,WeatherDisplay:10.37,2013-11-01 03:28:00,
2013-11-01 04:33:00,48.9,38.1,30.24,NNE,22,2.3,2.3,66,0.00,CLR,,0.00,0.0,WeatherDisplay:10.37,2013-11-01 03:33:00,
2013-11-01 04:38:00,48.9,38.1,30.24,ENE,68,1.1,0.0,66,0.00,CLR,,0.00,0.0,WeatherDisplay:10.37,2013-11-01 03:38:00,
2013-11-01 04:43:00,48.7,37.5,30.24,NNE,22,2.0,2.0,65,0.00,CLR,,0.00,0.0,WeatherDisplay:10.37,2013-11-01 03:43:00,
2013-11-01 04:48:00,48.9,37.7,30.24,West,270,1.1,0.0,65,0.00,CLR,,0.00,0.0,WeatherDisplay:10.37,2013-11-01 03:48:00,
2013-11-01 04:53:00,48.9,37.7,30.24,ESE,112,2.3,2.3,65,0.00,CLR,,0.00,0.0,WeatherDisplay:10.37,2013-11-01 03:53:00,
2013-11-01 04:58:00,48.9,37.7,30.24,ENE,68,2.2,2.2,65,0.00,CLR,,0.00,0.0,WeatherDisplay:10.37,2013-11-01 03:58:00,
2013-11-01 05:01:00,48.9,37.7,30.24,ESE,112,2.3,2.3,65,0.00,CLR,,0.00,0.0,WeatherDisplay:10.37,2013-11-01 04:01:00,
2013-11-01 05:06:00,49.1,37.4,30.24,ENE,68,2.3,2.3,64,0.00,CLR,,0.00,0.0,WeatherDisplay:10.37,2013-11-01 04:06:00,
2013-11-01 05:11:00,49.1,37.8,30.24,ENE,68,2.3,0.0,65,0.00,CLR,,0.00,0.0,WeatherDisplay:10.37,2013-11-01 04:11:00,
2013-11-01 05:16:00,49.1,37.4,30.24,East,90,1.1,0.0,64,0.00,CLR,,0.00,0.0,WeatherDisplay:10.37,2013-11-01 04:16:00,
2013-11-01 05:21:00,49.1,37.4,30.24,NNE,22,2.9,0.0,64,0.00,CLR,,0.00,0.0,WeatherDisplay:10.37,2013-11-01 04:21:00,
2013-11-01 05:26:00,49.1,37.4,30.24,NNE,22,2.3,2.3,64,0.00,CLR,,0.00,0.0,WeatherDisplay:10.37,2013-11-01 04:26:00,
2013-11-01 05:31:00,49.3,37.6,30.24,ESE,112,2.0,2.0,64,0.00,CLR,,0.00,0.0,WeatherDisplay:10.37,2013-11-01 04:31:00,
2013-11-01 05:36:00,49.3,37.2,30.21,ESE,112,2.3,2.3,63,0.00,CLR,,0.00,0.0,WeatherDisplay:10.37,2013-11-01 04:36:00,
2013-11-01 05:41:00,49.3,37.2,30.21,East,90,0.0,0.0,63,0.00,CLR,,0.00,0.0,WeatherDisplay:10.37,2013-11-01 04:41:00,
2013-11-01 05:46:00,49.3,37.2,30.21,NNE,22,2.3,2.3,63,0.00,CLR,,0.00,0.0,WeatherDisplay:10.37,2013-11-01 04:46:00,
2013-11-01 05:51:00,49.3,37.6,30.24,NNE,22,0.0,0.0,64,0.00,CLR,,0.00,0.0,WeatherDisplay:10.37,2013-11-01 04:51:00,
2013-11-01 05:56:00,49.3,37.2,30.24,NNW,338,2.3,2.3,63,0.00,CLR,,0.00,0.0,WeatherDisplay:10.37,2013-11-01 04:56:00,
2013-11-01 06:01:00,49.5,37.8,30.24,ESE,112,2.3,0.0,64,0.00,OVC,,0.00,0.0,WeatherDisplay:10.37,2013-11-01 05:01:00,
2013-11-01 06:06:00,49.5,37.4,30.21,NNW,338,1.4,1.4,63,0.00,OVC,,0.00,0.0,WeatherDisplay:10.37,2013-11-01 05:06:00,
2013-11-01 06:11:00,49.6,37.6,30.21,ESE,112,4.6,4.6,63,0.00,OVC,,0.00,0.0,WeatherDisplay:10.37,2013-11-01 05:11:00,
2013-11-01 06:16:00,49.6,37.6,30.21,ESE,112,3.3,3.3,63,0.00,OVC,,0.00,0.0,WeatherDisplay:10.37,2013-11-01 05:16:00,
2013-11-01 06:21:00,50.0,37.9,30.24,ENE,68,3.5,3.5,63,0.00,OVC,,0.00,0.0,WeatherDisplay:10.37,2013-11-01 05:21:00,
2013-11-01 06:26:00,50.2,37.7,30.24,ESE,112,3.5,3.5,62,0.00,OVC,,0.00,0.0,WeatherDisplay:10.37,2013-11-01 05:26:00,
2013-11-01 06:31:00,50.2,37.7,30.24,NE,45,2.3,0.0,62,0.00,OVC,,0.00,0.0,WeatherDisplay:10.37,2013-11-01 05:31:00,
2013-11-01 06:36:00,50.2,37.2,30.24,NNE,22,4.6,4.6,61,0.00,OVC,,0.00,0.0,WeatherDisplay:10.37,2013-11-01 05:36:00,
2013-11-01 06:41:00,50.2,37.7,30.24,ESE,112,3.5,3.5,62,0.00,OVC,,0.00,0.0,WeatherDisplay:10.37,2013-11-01 05:41:00,
2013-11-01 06:45:00,50.2,37.7,30.24,ENE,68,2.9,2.9,62,0.00,OVC,,0.00,0.0,WeatherDisplay:10.37,2013-11-01 05:45:00,
2013-11-01 06:50:00,50.2,37.7,30.24,NNE,22,2.3,2.3,62,0.00,OVC,,0.00,0.0,WeatherDisplay:10.37,2013-11-01 05:50:00,
2013-11-01 06:55:00,50.2,37.7,30.24,ESE,112,3.5,3.5,62,0.00,OVC,,0.00,0.0,WeatherDisplay:10.37,2013-11-01 05:55:00,
2013-11-01 07:00:00,50.2,37.7,30.24,NE,45,2.3,2.3,62,0.00,OVC,,0.00,0.0,WeatherDisplay:10.37,2013-11-01 06:00:00,
2013-11-01 07:05:00,50.2,37.7,30.24,East,90,3.5,3.5,62,0.00,OVC,,0.00,0.0,WeatherDisplay:10.37,2013-11-01 06:05:00,
2013-11-01 07:10:00,50.2,37.7,30.24,ESE,112,4.6,4.6,62,0.00,OVC,,0.00,0.0,WeatherDisplay:10.37,2013-11-01 06:10:00,
2013-11-01 07:15:00,50.4,37.8,30.24,ESE,112,3.5,3.5,62,0.00,OVC,,0.00,0.0,WeatherDisplay:10.37,2013-11-01 06:15:00,
2013-11-01 07:20:00,50.4,37.8,30.24,ESE,112,3.5,3.5,62,0.00,OVC,,0.00,0.0,WeatherDisplay:10.37,2013-11-01 06:20:00,
2013-11-01 07:25:00,50.4,37.8,30.24,NE,45,1.1,1.1,62,0.00,OVC,,0.00,0.0,WeatherDisplay:10.37,2013-11-01 06:25:00,
2013-11-01 07:30:00,50.4,37.8,30.24,NE,45,1.1,0.0,62,0.00,OVC,,0.00,0.0,WeatherDisplay:10.37,2013-11-01 06:30:00,
2013-11-01 07:35:00,50.5,38.0,30.24,ESE,112,2.3,0.0,62,0.00,OVC,,0.00,0.0,WeatherDisplay:10.37,2013-11-01 06:35:00,
2013-11-01 07:40:00,50.5,38.0,30.24,SSW,202,2.3,2.3,62,0.00,OVC,,0.00,0.0,WeatherDisplay:10.37,2013-11-01 06:40:00,
2013-11-01 07:45:00,50.5,38.0,30.24,ESE,112,4.0,4.0,62,0.00,OVC,,0.00,0.0,WeatherDisplay:10.37,2013-11-01 06:45:00,
2013-11-01 07:50:00,50.4,37.8,30.24,ESE,112,8.1,8.1,62,0.00,OVC,,0.00,0.0,WeatherDisplay:10.37,2013-11-01 06:50:00,
2013-11-01 07:55:00,50.4,37.4,30.24,ESE,112,5.8,5.8,61,0.00,OVC,,0.00,0.0,WeatherDisplay:10.37,2013-11-01 06:55:00,
2013-11-01 08:00:00,50.2,37.7,30.24,ENE,68,5.8,5.8,62,0.00,OVC,,0.00,0.0,WeatherDisplay:10.37,2013-11-01 07:00:00,
2013-11-01 08:05:00,50.2,37.2,30.24,ESE,112,6.9,6.9,61,0.00,OVC,,0.00,0.0,WeatherDisplay:10.37,2013-11-01 07:05:00,
2013-11-01 08:10:00,50.2,37.7,30.24,ESE,112,5.8,5.8,62,0.00,OVC,,0.00,0.0,WeatherDisplay:10.37,2013-11-01 07:10:00,
2013-11-01 08:15:00,50.0,37.5,30.24,East,90,6.9,6.9,62,0.00,OVC,,0.00,0.0,WeatherDisplay:10.37,2013-11-01 07:15:00,
2013-11-01 08:20:00,50.0,37.5,30.21,ESE,112,3.5,3.5,62,0.00,OVC,,0.00,0.0,WeatherDisplay:10.37,2013-11-01 07:20:00,
2013-11-01 08:25:00,50.0,37.9,30.21,ESE,112,8.1,8.1,63,0.00,OVC,,0.00,0.0,WeatherDisplay:10.37,2013-11-01 07:25:00,
2013-11-01 08:30:00,50.0,37.9,30.21,ENE,68,1.1,2.2,63,0.00,OVC,,0.00,0.0,WeatherDisplay:10.37,2013-11-01 07:30:00,
2013-11-01 08:35:00,50.0,38.3,30.24,SSW,202,4.0,4.0,64,0.00,OVC,,0.00,0.0,WeatherDisplay:10.37,2013-11-01 07:35:00,
2013-11-01 08:40:00,50.0,38.3,30.24,ESE,112,5.8,5.8,64,0.00,OVC,,0.00,0.0,WeatherDisplay:10.37,2013-11-01 07:40:00,
2013-11-01 08:45:00,50.2,38.5,30.24,ESE,112,4.6,4.6,64,0.00,OVC,,0.00,0.0,WeatherDisplay:10.37,2013-11-01 07:45:00,
2013-11-01 08:50:00,50.2,38.9,30.21,ENE,68,4.6,4.6,65,0.00,OVC,,0.00,0.0,WeatherDisplay:10.37,2013-11-01 07:50:00,
2013-11-01 08:55:00,50.2,38.9,30.21,ESE,112,4.6,4.6,65,0.00,OVC,,0.00,0.0,WeatherDisplay:10.37,2013-11-01 07:55:00,
2013-11-01 09:00:00,50.2,38.9,30.21,ESE,112,4.9,4.9,65,0.00,OVC,,0.00,0.0,WeatherDisplay:10.37,2013-11-01 08:00:00,
2013-11-01 09:05:00,50.4,39.0,30.24,ESE,112,3.5,3.5,65,0.00,OVC,,0.00,0.0,WeatherDisplay:10.37,2013-11-01 08:05:00,
2013-11-01 09:10:00,50.5,39.2,30.24,ESE,112,2.3,2.3,65,0.00,OVC,,0.00,0.0,WeatherDisplay:10.37,2013-11-01 08:10:00,
2013-11-01 09:15:00,50.5,39.6,30.24,ESE,112,3.5,3.5,66,0.00,OVC,,0.00,0.0,WeatherDisplay:10.37,2013-11-01 08:15:00,
2013-11-01 09:20:00,50.7,39.8,30.24,SE,135,4.6,4.6,66,0.00,OVC,,0.00,0.0,WeatherDisplay:10.37,2013-11-01 08:20:00,
2013-11-01 09:25:00,50.9,39.9,30.24,ESE,112,4.6,4.6,66,0.00,OVC,,0.00,0.0,WeatherDisplay:10.37,2013-11-01 08:25:00,
2013-11-01 09:30:00,51.1,40.5,30.24,SE,135,5.8,5.8,67,0.00,OVC,,0.00,0.0,WeatherDisplay:10.37,2013-11-01 08:30:00,
2013-11-01 09:35:00,51.3,40.7,30.24,SSE,158,1.6,1.6,67,0.00,OVC,,0.00,0.0,WeatherDisplay:10.37,2013-11-01 08:35:00,
2013-11-01 09:40:00,51.6,41.4,30.24,ENE,68,3.5,3.5,68,0.00,OVC,,0.00,0.0,WeatherDisplay:10.37,2013-11-01 08:40:00,
2013-11-01 09:45:00,51.8,41.6,30.24,ESE,112,1.1,1.1,68,0.00,OVC,,0.00,0.0,WeatherDisplay:10.37,2013-11-01 08:45:00,
2013-11-01 09:50:00,52.2,41.9,30.24,East,90,1.6,1.6,68,0.00,OVC,,0.00,0.0,WeatherDisplay:10.37,2013-11-01 08:50:00,
2013-11-01 09:55:00,52.3,42.5,30.24,WNW,292,2.3,2.3,69,0.00,OVC,,0.00,0.0,WeatherDisplay:10.37,2013-11-01 08:55:00,
2013-11-01 10:00:00,52.5,42.6,30.24,SSW,202,0.0,0.0,69,0.00,OVC,,0.00,0.0,WeatherDisplay:10.37,2013-11-01 09:00:00,
2013-11-01 10:05:00,52.7,43.2,30.21,WSW,248,1.4,1.4,70,0.00,OVC,,0.00,0.0,WeatherDisplay:10.37,2013-11-01 09:05:00,
2013-11-01 10:10:00,53.1,43.5,30.21,WSW,248,3.5,3.5,70,0.00,OVC,,0.00,0.0,WeatherDisplay:10.37,2013-11-01 09:10:00,
2013-11-01 10:15:00,53.2,43.7,30.21,WSW,248,2.3,2.3,70,0.00,OVC,,0.00,0.0,WeatherDisplay:10.37,2013-11-01 09:15:00,
2013-11-01 10:20:00,53.4,43.9,30.27,WNW,292,2.6,2.6,70,0.00,OVC,,0.00,0.0,WeatherDisplay:10.37,2013-11-01 09:20:00,
2013-11-01 10:25:00,53.6,43.7,30.27,WNW,292,3.5,3.5,69,0.00,OVC,,0.00,0.0,WeatherDisplay:10.37,2013-11-01 09:25:00,
2013-11-01 10:30:00,53.6,43.7,30.27,WSW,248,2.4,2.4,69,0.00,OVC,,0.00,0.0,WeatherDisplay:10.37,2013-11-01 09:30:00,
2013-11-01 10:35:00,53.8,43.8,30.24,WSW,248,2.3,2.3,69,0.00,OVC,,0.00,0.0,WeatherDisplay:10.37,2013-11-01 09:35:00,
2013-11-01 10:40:00,53.8,43.8,30.24,WSW,248,0.0,0.0,69,0.00,OVC,,0.00,0.0,WeatherDisplay:10.37,2013-11-01 09:40:00,
2013-11-01 10:45:00,54.0,44.0,30.24,WSW,248,2.0,2.0,69,0.00,OVC,,0.00,0.0,WeatherDisplay:10.37,2013-11-01 09:45:00,
2013-11-01 10:50:00,54.1,44.6,30.24,WSW,248,0.0,0.0,70,0.00,OVC,,0.00,0.0,WeatherDisplay:10.37,2013-11-01 09:50:00,
2013-11-01 10:55:00,54.1,44.2,30.24,SSW,202,2.3,2.3,69,0.00,OVC,,0.00,0.0,WeatherDisplay:10.37,2013-11-01 09:55:00,
2013-11-01 11:00:00,54.3,44.4,30.24,WNW,292,1.1,0.0,69,0.00,OVC,,0.00,0.0,WeatherDisplay:10.37,2013-11-01 10:00:00,
2013-11-01 11:05:00,54.5,44.9,30.24,WSW,248,0.0,0.0,70,0.00,OVC,,0.00,0.0,WeatherDisplay:10.37,2013-11-01 10:05:00,
2013-11-01 11:10:00,54.7,45.1,30.24,WNW,292,2.3,0.0,70,0.00,OVC,,0.00,0.0,WeatherDisplay:10.37,2013-11-01 10:10:00,
2013-11-01 11:15:00,54.7,45.1,30.24,WSW,248,2.3,0.0,70,0.00,OVC,,0.00,0.0,WeatherDisplay:10.37,2013-11-01 10:15:00,
2013-11-01 11:20:00,54.9,45.3,30.24,SSW,202,1.4,1.4,70,0.00,OVC,,0.00,0.0,WeatherDisplay:10.37,2013-11-01 10:20:00,
2013-11-01 11:25:00,55.0,45.4,30.24,SSW,202,2.9,2.9,70,0.00,OVC,,0.00,0.0,WeatherDisplay:10.37,2013-11-01 10:25:00,
2013-11-01 11:30:00,55.2,46.0,30.24,WSW,248,2.3,2.3,71,0.00,OVC,,0.00,0.0,WeatherDisplay:10.37,2013-11-01 10:30:00,
2013-11-01 11:35:00,55.4,46.2,30.24,WSW,248,2.3,2.3,71,0.00,OVC,,0.00,0.0,WeatherDisplay:10.37,2013-11-01 10:35:00,
2013-11-01 11:40:00,55.4,45.8,30.24,SW,225,4.6,4.6,70,0.00,OVC,,0.00,0.0,WeatherDisplay:10.37,2013-11-01 10:40:00,
2013-11-01 11:45:00,55.6,46.3,30.24,SW,225,2.3,2.4,71,0.00,OVC,,0.00,0.0,WeatherDisplay:10.37,2013-11-01 10:45:00,
2013-11-01 11:50:00,55.6,46.3,30.21,SSW,202,3.5,3.5,71,0.00,OVC,,0.00,0.0,WeatherDisplay:10.37,2013-11-01 10:50:00,
2013-11-01 11:55:00,55.8,46.5,30.21,SSW,202,1.6,1.6,71,0.00,OVC,,0.00,0.0,WeatherDisplay:10.37,2013-11-01 10:55:00,
2013-11-01 12:00:00,55.9,46.7,30.21,West,270,1.1,0.0,71,0.00,OVC,,0.00,0.0,WeatherDisplay:10.37,2013-11-01 11:00:00,
2013-11-01 12:05:00,55.9,46.7,30.21,WSW,248,2.3,2.3,71,0.00,OVC,,0.00,0.0,WeatherDisplay:10.37,2013-11-01 11:05:00,
2013-11-01 12:10:00,55.9,46.7,30.21,SSW,202,2.0,2.0,71,0.00,OVC,,0.00,0.0,WeatherDisplay:10.37,2013-11-01 11:10:00,
2013-11-01 12:15:00,55.9,46.7,30.21,WSW,248,1.1,1.6,71,0.00,OVC,,0.00,0.0,WeatherDisplay:10.37,2013-11-01 11:15:00,
2013-11-01 12:20:00,56.1,46.8,30.21,WNW,292,1.1,0.0,71,0.00,OVC,,0.00,0.0,WeatherDisplay:10.37,2013-11-01 11:20:00,
2013-11-01 12:25:00,56.3,47.0,30.21,ESE,112,1.1,1.1,71,0.00,OVC,,0.00,0.0,WeatherDisplay:10.37,2013-11-01 11:25:00,
2013-11-01 12:30:00,56.3,47.0,30.21,ESE,112,2.3,0.0,71,0.00,OVC,,0.00,0.0,WeatherDisplay:10.37,2013-11-01 11:30:00,
2013-11-01 12:35:00,56.5,47.2,30.21,NNW,338,0.0,0.0,71,0.00,OVC,,0.00,0.0,WeatherDisplay:10.37,2013-11-01 11:35:00,
2013-11-01 12:40:00,56.7,47.4,30.21,NNW,338,2.3,2.3,71,0.00,OVC,,0.00,0.0,WeatherDisplay:10.37,2013-11-01 11:40:00,
2013-11-01 12:45:00,56.7,47.4,30.21,ESE,112,3.5,3.5,71,0.00,OVC,,0.00,0.0,WeatherDisplay:10.37,2013-11-01 11:45:00,
2013-11-01 12:50:00,56.7,47.7,30.21,South,180,2.3,2.3,72,0.00,OVC,,0.00,0.0,WeatherDisplay:10.37,2013-11-01 11:50:00,
2013-11-01 12:55:00,56.8,47.9,30.21,SSW,202,2.3,2.3,72,0.00,OVC,,0.00,0.0,WeatherDisplay:10.37,2013-11-01 11:55:00,
2013-11-01 13:00:00,57.0,48.1,30.21,NNW,338,2.3,2.3,72,0.00,OVC,,0.00,0.0,WeatherDisplay:10.37,2013-11-01 12:00:00,
2013-11-01 13:05:00,57.2,48.3,30.21,SSE,158,1.4,1.4,72,0.00,OVC,,0.00,0.0,WeatherDisplay:10.37,2013-11-01 12:05:00,
2013-11-01 13:10:00,57.2,48.3,30.21,WSW,248,2.3,2.3,72,0.00,OVC,,0.00,0.0,WeatherDisplay:10.37,2013-11-01 12:10:00,
2013-11-01 13:15:00,57.2,48.3,30.21,SSW,202,2.3,2.3,72,0.00,OVC,,0.00,0.0,WeatherDisplay:10.37,2013-11-01 12:15:00,
2013-11-01 13:20:00,57.2,48.3,30.21,West,270,3.5,0.0,72,0.00,OVC,,0.00,0.0,WeatherDisplay:10.37,2013-11-01 12:20:00,
2013-11-01 13:25:00,57.2,48.3,30.21,WSW,248,2.3,2.3,72,0.00,OVC,,0.00,0.0,WeatherDisplay:10.37,2013-11-01 12:25:00,
2013-11-01 13:30:00,57.2,48.6,30.21,WSW,248,3.5,3.5,73,0.00,OVC,,0.00,0.0,WeatherDisplay:10.37,2013-11-01 12:30:00,
2013-11-01 13:35:00,57.4,48.8,30.18,SSE,158,3.1,3.1,73,0.00,OVC,,0.00,0.0,WeatherDisplay:10.37,2013-11-01 12:35:00,
2013-11-01 13:40:00,57.4,48.8,30.18,SSW,202,3.5,3.5,73,0.00,OVC,,0.00,0.0,WeatherDisplay:10.37,2013-11-01 12:40:00,
2013-11-01 13:45:00,57.4,48.8,30.18,SSE,158,2.0,2.0,73,0.00,OVC,,0.00,0.0,WeatherDisplay:10.37,2013-11-01 12:45:00,
2013-11-01 13:50:00,57.4,48.8,30.18,WNW,292,1.1,0.0,73,0.00,OVC,,0.00,0.0,WeatherDisplay:10.37,2013-11-01 12:50:00,
2013-11-01 13:55:00,57.2,48.6,30.18,West,270,1.1,1.1,73,0.00,OVC,,0.00,0.0,WeatherDisplay:10.37,2013-11-01 12:55:00,
2013-11-01 14:00:00,57.2,48.6,30.18,SSW,202,2.3,2.3,73,0.00,OVC,,0.00,0.0,WeatherDisplay:10.37,2013-11-01 13:00:00,
2013-11-01 14:05:00,57.2,48.6,30.18,SW,225,2.3,0.0,73,0.00,OVC,,0.00,0.0,WeatherDisplay:10.37,2013-11-01 13:05:00,
2013-11-01 14:10:00,57.2,48.6,30.18,WNW,292,3.5,3.5,73,0.00,OVC,,0.00,0.0,WeatherDisplay:10.37,2013-11-01 13:10:00,
2013-11-01 14:15:00,57.4,48.8,30.18,WSW,248,0.9,0.0,73,0.00,OVC,,0.00,0.0,WeatherDisplay:10.37,2013-11-01 13:15:00,
2013-11-01 14:20:00,57.4,48.8,30.18,WSW,248,0.0,0.0,73,0.00,OVC,,0.00,0.0,WeatherDisplay:10.37,2013-11-01 13:20:00,
2013-11-01 14:25:00,57.4,48.8,30.18,WNW,292,0.0,0.0,73,0.00,OVC,,0.00,0.0,WeatherDisplay:10.37,2013-11-01 13:25:00,
2013-11-01 14:30:00,57.4,48.8,30.18,SSW,202,1.1,0.0,73,0.00,OVC,,0.00,0.0,WeatherDisplay:10.37,2013-11-01 13:30:00,
2013-11-01 14:35:00,57.4,48.8,30.18,SSW,202,1.1,0.0,73,0.00,OVC,,0.00,0.0,WeatherDisplay:10.37,2013-11-01 13:35:00,
2013-11-01 14:40:00,57.2,48.6,30.18,WSW,248,0.0,0.0,73,0.00,OVC,,0.00,0.0,WeatherDisplay:10.37,2013-11-01 13:40:00,
2013-11-01 14:45:00,57.2,48.6,30.18,WSW,248,2.3,2.3,73,0.00,OVC,,0.00,0.0,WeatherDisplay:10.37,2013-11-01 13:45:00,
2013-11-01 14:50:00,57.2,48.6,30.15,NNW,338,0.0,0.0,73,0.00,OVC,,0.00,0.0,WeatherDisplay:10.37,2013-11-01 13:50:00,
2013-11-01 14:55:00,57.2,48.6,30.15,ESE,112,2.3,2.3,73,0.00,OVC,,0.00,0.0,WeatherDisplay:10.37,2013-11-01 13:55:00,
2013-11-01 15:00:00,57.2,48.6,30.15,ESE,112,2.3,2.3,73,0.00,OVC,,0.00,0.0,WeatherDisplay:10.37,2013-11-01 14:00:00,
2013-11-01 15:05:00,57.0,48.4,30.18,ESE,112,1.1,0.0,73,0.00,OVC,,0.00,0.0,WeatherDisplay:10.37,2013-11-01 14:05:00,
2013-11-01 15:10:00,57.0,48.4,30.18,SSW,202,2.3,0.0,73,0.00,OVC,,0.00,0.0,WeatherDisplay:10.37,2013-11-01 14:10:00,
2013-11-01 15:15:00,56.8,48.3,30.18,ESE,112,1.1,0.0,73,0.00,OVC,,0.00,0.0,WeatherDisplay:10.37,2013-11-01 14:15:00,
2013-11-01 15:20:00,56.8,48.6,30.18,SSW,202,0.0,0.0,74,0.00,OVC,,0.00,0.0,WeatherDisplay:10.37,2013-11-01 14:20:00,
2013-11-01 15:25:00,56.8,48.6,30.18,ESE,112,2.4,2.4,74,0.00,OVC,,0.00,0.0,WeatherDisplay:10.37,2013-11-01 14:25:00,
2013-11-01 15:30:00,56.7,48.1,30.18,ENE,68,4.6,4.6,73,0.00,OVC,,0.00,0.0,WeatherDisplay:10.37,2013-11-01 14:30:00,
2013-11-01 15:35:00,56.5,47.6,30.18,ESE,112,3.8,3.8,72,0.00,OVC,,0.00,0.0,WeatherDisplay:10.37,2013-11-01 14:35:00,
2013-11-01 15:40:00,56.3,47.4,30.18,NNE,22,3.5,3.5,72,0.00,OVC,,0.00,0.0,WeatherDisplay:10.37,2013-11-01 14:40:00,
2013-11-01 15:45:00,56.1,47.2,30.18,East,90,4.6,4.6,72,0.00,OVC,,0.00,0.0,WeatherDisplay:10.37,2013-11-01 14:45:00,
2013-11-01 15:50:00,55.9,47.0,30.18,ESE,112,4.6,4.6,72,0.00,OVC,,0.00,0.0,WeatherDisplay:10.37,2013-11-01 14:50:00,
2013-11-01 15:55:00,55.8,46.9,30.18,NNE,22,0.0,0.0,72,0.00,OVC,,0.00,0.0,WeatherDisplay:10.37,2013-11-01 14:55:00,
2013-11-01 16:00:00,55.4,46.5,30.18,ENE,68,3.5,3.5,72,0.00,OVC,,0.00,0.0,WeatherDisplay:10.37,2013-11-01 15:00:00,
2013-11-01 16:05:00,55.0,46.5,30.18,ESE,112,4.6,4.6,73,0.00,OVC,,0.00,0.0,WeatherDisplay:10.37,2013-11-01 15:05:00,
2013-11-01 16:10:00,54.9,46.4,30.18,ENE,68,0.0,0.0,73,0.00,OVC,,0.00,0.0,WeatherDisplay:10.37,2013-11-01 15:10:00,
2013-11-01 16:15:00,54.3,45.8,30.18,NNE,22,0.0,0.0,73,0.00,OVC,,0.00,0.0,WeatherDisplay:10.37,2013-11-01 15:15:00,
2013-11-01 16:20:00,54.0,45.5,30.15,ESE,112,2.3,2.3,73,0.00,OVC,,0.00,0.0,WeatherDisplay:10.37,2013-11-01 15:20:00,
2013-11-01 16:25:00,53.8,45.7,30.15,ENE,68,2.3,2.3,74,0.00,OVC,,0.00,0.0,WeatherDisplay:10.37,2013-11-01 15:25:00,
2013-11-01 16:30:00,53.6,45.5,30.15,ESE,112,3.5,3.5,74,0.00,OVC,,0.00,0.0,WeatherDisplay:10.37,2013-11-01 15:30:00,
2013-11-01 16:35:00,53.6,45.5,30.21,NNE,22,0.0,0.0,74,0.00,OVC,,0.00,0.0,WeatherDisplay:10.37,2013-11-01 15:35:00,
2013-11-01 16:40:00,53.6,45.9,30.21,SSE,158,0.0,0.0,75,0.00,OVC,,0.00,0.0,WeatherDisplay:10.37,2013-11-01 15:40:00,
2013-11-01 16:45:00,53.6,45.9,30.21,ESE,112,0.0,0.0,75,0.00,OVC,,0.00,0.0,WeatherDisplay:10.37,2013-11-01 15:45:00,
2013-11-01 16:50:00,53.6,45.9,30.18,SE,135,1.4,0.0,75,0.00,OVC,,0.00,0.0,WeatherDisplay:10.37,2013-11-01 15:50:00,
2013-11-01 16:55:00,53.6,46.2,30.18,WSW,248,0.0,0.0,76,0.00,OVC,,0.00,0.0,WeatherDisplay:10.37,2013-11-01 15:55:00,
2013-11-01 17:00:00,53.4,46.0,30.18,SE,135,0.0,0.0,76,0.00,CLR,,0.00,0.0,WeatherDisplay:10.37,2013-11-01 16:00:00,
2013-11-01 17:05:00,53.4,46.0,30.18,ESE,112,2.3,0.0,76,0.00,CLR,,0.00,0.0,WeatherDisplay:10.37,2013-11-01 16:05:00,
2013-11-01 17:10:00,53.6,46.2,30.18,NNE,22,1.4,1.4,76,0.00,CLR,,0.00,0.0,WeatherDisplay:10.37,2013-11-01 16:10:00,
2013-11-01 17:15:00,53.6,46.2,30.18,ENE,68,3.5,3.5,76,0.00,CLR,,0.00,0.0,WeatherDisplay:10.37,2013-11-01 16:15:00,
2013-11-01 17:20:00,53.6,46.2,30.21,East,90,3.5,3.5,76,0.00,CLR,,0.00,0.0,WeatherDisplay:10.37,2013-11-01 16:20:00,
2013-11-01 17:25:00,53.8,46.4,30.21,ESE,112,2.3,2.3,76,0.00,CLR,,0.00,0.0,WeatherDisplay:10.37,2013-11-01 16:25:00,
2013-11-01 17:30:00,53.8,46.4,30.21,ENE,68,3.5,3.5,76,0.00,CLR,,0.00,0.0,WeatherDisplay:10.37,2013-11-01 16:30:00,
2013-11-01 17:35:00,53.8,46.4,30.18,NNE,22,0.0,0.0,76,0.00,CLR,,0.00,0.0,WeatherDisplay:10.37,2013-11-01 16:35:00,
2013-11-01 17:40:00,53.8,46.4,30.18,North,0,0.0,0.0,76,0.00,CLR,,0.00,0.0,WeatherDisplay:10.37,2013-11-01 16:40:00,
2013-11-01 17:45:00,53.6,46.2,30.18,ESE,112,2.3,2.3,76,0.00,CLR,,0.00,0.0,WeatherDisplay:10.37,2013-11-01 16:45:00,
2013-11-01 17:50:00,53.6,46.2,30.18,ESE,112,3.8,3.8,76,0.00,CLR,,0.00,0.0,WeatherDisplay:10.37,2013-11-01 16:50:00,
2013-11-01 17:55:00,53.6,46.2,30.18,East,90,2.3,2.3,76,0.00,CLR,,0.00,0.0,WeatherDisplay:10.37,2013-11-01 16:55:00,
2013-11-01 18:00:00,53.6,46.2,30.18,ESE,112,1.4,1.4,76,0.00,CLR,,0.00,0.0,WeatherDisplay:10.37,2013-11-01 17:00:00,
2013-11-01 18:05:00,53.6,46.2,30.18,ENE,68,1.1,0.0,76,0.00,CLR,,0.00,0.0,WeatherDisplay:10.37,2013-11-01 17:05:00,
2013-11-01 18:10:00,53.4,46.4,30.18,ENE,68,2.3,0.0,77,0.00,CLR,,0.00,0.0,WeatherDisplay:10.37,2013-11-01 17:10:00,
2013-11-01 18:15:00,53.4,46.4,30.18,East,90,1.1,0.0,77,0.00,CLR,,0.00,0.0,WeatherDisplay:10.37,2013-11-01 17:15:00,
2013-11-01 18:20:00,53.2,46.2,30.18,NE,45,0.0,0.0,77,0.00,CLR,,0.00,0.0,WeatherDisplay:10.37,2013-11-01 17:20:00,
2013-11-01 18:25:00,53.1,46.0,30.18,ENE,68,1.1,0.0,77,0.00,CLR,,0.00,0.0,WeatherDisplay:10.37,2013-11-01 17:25:00,
2013-11-01 18:30:00,52.7,45.7,30.18,ESE,112,2.3,2.3,77,0.00,CLR,,0.00,0.0,WeatherDisplay:10.37,2013-11-01 17:30:00,
2013-11-01 18:35:00,52.7,45.7,30.18,ESE,112,0.0,0.0,77,0.00,CLR,,0.00,0.0,WeatherDisplay:10.37,2013-11-01 17:35:00,
2013-11-01 18:40:00,52.5,45.9,30.18,ENE,68,0.0,0.0,78,0.00,CLR,,0.00,0.0,WeatherDisplay:10.37,2013-11-01 17:40:00,
2013-11-01 18:45:00,52.3,45.7,30.18,NNE,22,0.0,0.0,78,0.00,CLR,,0.00,0.0,WeatherDisplay:10.37,2013-11-01 17:45:00,
2013-11-01 18:50:00,52.3,46.0,30.18,ESE,112,0.0,0.0,79,0.00,CLR,,0.00,0.0,WeatherDisplay:10.37,2013-11-01 17:50:00,
2013-11-01 18:55:00,52.3,46.0,30.18,ENE,68,1.1,0.0,79,0.00,CLR,,0.00,0.0,WeatherDisplay:10.37,2013-11-01 17:55:00,
2013-11-01 19:00:00,52.3,46.0,30.18,NE,45,1.1,0.0,79,0.00,CLR,,0.00,0.0,WeatherDisplay:10.37,2013-11-01 18:00:00,
2013-11-01 19:05:00,52.5,46.2,30.18,ESE,112,3.6,3.6,79,0.00,CLR,,0.00,0.0,WeatherDisplay:10.37,2013-11-01 18:05:00,
2013-11-01 19:10:00,52.5,46.2,30.18,ESE,112,2.3,2.3,79,0.00,CLR,,0.00,0.0,WeatherDisplay:10.37,2013-11-01 18:10:00,
2013-11-01 19:15:00,52.7,46.4,30.18,ESE,112,2.3,0.0,79,0.00,CLR,,0.00,0.0,WeatherDisplay:10.37,2013-11-01 18:15:00,
2013-11-01 19:20:00,52.7,46.7,30.18,ESE,112,2.3,2.3,80,0.00,CLR,,0.00,0.0,WeatherDisplay:10.37,2013-11-01 18:20:00,
2013-11-01 19:25:00,52.9,46.9,30.18,East,90,2.3,2.3,80,0.00,CLR,,0.00,0.0,WeatherDisplay:10.37,2013-11-01 18:25:00,
2013-11-01 19:30:00,52.9,46.9,30.18,SSE,158,0.0,0.0,80,0.00,CLR,,0.00,0.0,WeatherDisplay:10.37,2013-11-01 18:30:00,
2013-11-01 19:35:00,52.9,46.9,30.15,WSW,248,0.0,0.0,80,0.00,CLR,,0.00,0.0,WeatherDisplay:10.37,2013-11-01 18:35:00,
2013-11-01 19:40:00,52.9,46.9,30.15,WSW,248,1.1,0.0,80,0.00,CLR,,0.00,0.0,WeatherDisplay:10.37,2013-11-01 18:40:00,
2013-11-01 19:45:00,52.9,46.9,30.15,SSE,158,0.0,0.0,80,0.00,CLR,,0.00,0.0,WeatherDisplay:10.37,2013-11-01 18:45:00,
2013-11-01 19:50:00,53.1,47.1,30.15,ESE,112,2.3,2.3,80,0.00,CLR,,0.00,0.0,WeatherDisplay:10.37,2013-11-01 18:50:00,
2013-11-01 19:55:00,53.1,47.1,30.15,ESE,112,2.2,0.0,80,0.00,CLR,,0.00,0.0,WeatherDisplay:10.37,2013-11-01 18:55:00,
2013-11-01 20:00:00,53.1,47.4,30.15,NNE,22,0.0,0.0,81,0.00,CLR,,0.00,0.0,WeatherDisplay:10.37,2013-11-01 19:00:00,
2013-11-01 20:05:00,53.1,47.4,30.18,NNE,22,0.0,0.0,81,0.00,CLR,,0.00,0.0,WeatherDisplay:10.37,2013-11-01 19:05:00,
2013-11-01 20:10:00,53.1,47.4,30.18,ENE,68,2.3,0.0,81,0.00,CLR,,0.00,0.0,WeatherDisplay:10.37,2013-11-01 19:10:00,
2013-11-01 20:15:00,53.1,47.4,30.18,ENE,68,2.3,0.0,81,0.00,CLR,,0.00,0.0,WeatherDisplay:10.37,2013-11-01 19:15:00,
2013-11-01 20:20:00,53.2,47.6,30.18,NE,45,0.0,0.0,81,0.00,CLR,,0.00,0.0,WeatherDisplay:10.37,2013-11-01 19:20:00,
2013-11-01 20:25:00,53.2,47.6,30.18,NE,45,0.0,0.0,81,0.00,CLR,,0.00,0.0,WeatherDisplay:10.37,2013-11-01 19:25:00,
2013-11-01 20:30:00,53.2,47.6,30.18,NE,45,0.0,0.0,81,0.00,CLR,,0.00,0.0,WeatherDisplay:10.37,2013-11-01 19:30:00,
2013-11-01 20:35:00,53.2,47.6,30.15,ENE,68,0.0,0.0,81,0.00,CLR,,0.00,0.0,WeatherDisplay:10.37,2013-11-01 19:35:00,
2013-11-01 20:40:00,53.2,47.9,30.15,ENE,68,0.0,0.0,82,0.00,CLR,,0.00,0.0,WeatherDisplay:10.37,2013-11-01 19:40:00,
2013-11-01 20:45:00,53.2,47.6,30.15,ENE,68,0.0,0.0,81,0.00,CLR,,0.00,0.0,WeatherDisplay:10.37,2013-11-01 19:45:00,
2013-11-01 20:50:00,53.2,47.9,30.18,NNE,22,0.0,0.0,82,0.00,CLR,,0.00,0.0,WeatherDisplay:10.37,2013-11-01 19:50:00,
2013-11-01 20:55:00,53.2,47.9,30.18,NNE,22,0.0,0.0,82,0.00,CLR,,0.00,0.0,WeatherDisplay:10.37,2013-11-01 19:55:00,
2013-11-01 21:00:00,53.2,47.9,30.18,NNE,22,0.0,0.0,82,0.00,CLR,,0.00,0.0,WeatherDisplay:10.37,2013-11-01 20:00:00,
2013-11-01 21:05:00,53.2,47.9,30.18,NNE,22,0.0,0.0,82,0.00,CLR,,0.00,0.0,WeatherDisplay:10.37,2013-11-01 20:05:00,
2013-11-01 21:10:00,53.2,47.9,30.18,NNE,22,0.0,0.0,82,0.00,CLR,,0.00,0.0,WeatherDisplay:10.37,2013-11-01 20:10:00,
2013-11-01 21:15:00,53.2,47.9,30.18,NNE,22,0.0,0.0,82,0.00,CLR,,0.00,0.0,WeatherDisplay:10.37,2013-11-01 20:15:00,
2013-11-01 21:20:00,53.2,47.9,30.15,NNE,22,0.0,0.0,82,0.00,CLR,,0.00,0.0,WeatherDisplay:10.37,2013-11-01 20:20:00,
2013-11-01 21:25:00,53.2,47.9,30.15,NNE,22,0.0,0.0,82,0.00,CLR,,0.00,0.0,WeatherDisplay:10.37,2013-11-01 20:25:00,
2013-11-01 21:30:00,53.2,47.9,30.15,ENE,68,0.0,0.0,82,0.00,CLR,,0.00,0.0,WeatherDisplay:10.37,2013-11-01 20:30:00,
2013-11-01 21:35:00,53.2,47.9,30.15,ENE,68,0.0,0.0,82,0.00,CLR,,0.00,0.0,WeatherDisplay:10.37,2013-11-01 20:35:00,
2013-11-01 21:40:00,53.2,47.9,30.15,ENE,68,0.0,0.0,82,0.00,CLR,,0.00,0.0,WeatherDisplay:10.37,2013-11-01 20:40:00,
2013-11-01 21:45:00,53.1,47.7,30.15,ENE,68,0.0,0.0,82,0.00,CLR,,0.00,0.0,WeatherDisplay:10.37,2013-11-01 20:45:00,
2013-11-01 21:50:00,53.1,48.0,30.15,ENE,68,0.0,0.0,83,0.00,CLR,,0.00,0.0,WeatherDisplay:10.37,2013-11-01 20:50:00,
2013-11-01 21:55:00,53.1,48.0,30.15,ENE,68,0.0,0.0,83,0.00,CLR,,0.00,0.0,WeatherDisplay:10.37,2013-11-01 20:55:00,